Caen-Carpiquet Airport

Airport
ICAO code: 
LFRK
IATA Code: 
CFR
Summary
ICAO Region: 
EUR
Territory: 
Location: 
, Basse-Normandie
Serving: 
Caen
Elevation: 
256 ft
Coordinates: 
Aerial View: 
49° 10' 23.999" N, 0° 27' 0" W
Metar
Observation
LFRK 302100Z AUTO 23017KT 9999 OVC014 10/08 Q1011 TEMPO 4000 RADZ BECMG 22020G30KT BKN020
Station
Caen
Date/Time
2021-11-30 21:00:00
Wind direction
230°
Wind speed
17 kts
Lowest cloud amount
overcast
Temperature
10°C
Dew point
8°C
Humidity
87%
QNH
1011 hPa
Weather condition
n/a

Runways

Designator Length Width Surface Rops
6/24 1180 30 ASP No/No
13/31 1900 45 ASP No/No
Airport map: 
Aerial View: 

SKYbrary Partners:

Safety knowledge contributed by: